Airfield :
LOGIN :

Register | Disclaimer

   EN    FR    IT 

 










Legend :    VFR   Marginal VFR   IFR   Intensive IFR   Very Intensive IFR
Visi :
Ceiling :
>= 8 km
>= 3000ft
5 to 8 km
1000 to 3000 ft
1500m to 5 km
500 to 1000 ft
800 to 1500m
200 to 500 ft
< 800m
< 200 ft
Symbols :   Thunderstorms  Fog  Heavy snow  Heavy precipitations  Wind > 20 kt
SIGMETs :     Misc.  Thunderstorms  Icing  Turbulence  Mountain Waves  Volcanic Ashes






- Airport Elevation : 116 ft
- IATA code : ISC


EGHE - Scilly Isles / St Mary's

CURRENT METAR :
  • 191650Z 17026KT 4000 -RA BR SCT004 BKN008 11/11 Q1007

EXPIRED METARs :
  • 191620Z 17027G37KT 4000 -RA BR SCT004 BKN008 11/10 Q1007
  • 191550Z 17028G39KT 4500 DZ BR BKN004 11/10 Q1007
  • 191520Z 17028KT 3500 DZ BR SCT004 BKN008 11/10 Q1007
  • 191450Z 17026KT 1500 -RA BR BKN005 11/11 Q1008

Expired Forecast.



MET'MAP, your aeronautical weather chart ! - Copyright ORBIFLY December 2007 - Disclaimer

ORBIFLY MET'MAP TEAM :

Programming & Development : Alexandra Zaïnal
Concept & Development : Baudouin d'Aumeries
Co-Development & Prog : Marc-Olivier Méhu
Technical & hardware support : Manuel Goepfert

Contact : metmap@orbifly.com




SOURCES & CREDITS :

   NOAA